M I D A S
Marine Information and Data Acquisition System
Tripno 341 of the Zeeleeuw from 2002-09-25 06:46:03 to 2002-09-25 12:56:14
Back to CruiseResearch ActivitiesStationsMapUnderway DataData graphs

EquipmentUnitsComment
TimeDGPSUTC
LatitudeDGPSDM.mWGS84
LongitudeDGPSDM.mWGS84
TemperatureSBE03/SBE38deg celciusITS90
ConductivitySBE21S/mITS90
SalinitySBE21 Practical Salinity Units
ChlorophylAChelsea fluorimeterg/lCalibrated in Aceton
Missing or incorrect values are displayed as -999
Sea surface data collected by the RV Zeeleeuw from 2002-09-25 06:46:03 to 2002-09-25 12:56:14
Time Latitude Longitude Temperature Conductivity Salinity ChlorophylA
2002-09-25 06:47:04 51°13.668 2°55.947 36.957721 0.010194 0.059215  
2002-09-25 06:48:04 51°13.669 2°55.947 37.323829 0.010194 0.059215  
2002-09-25 06:49:04 51°13.669 2°55.947 37.784669 0.010194 0.059215  
2002-09-25 06:50:04 51°13.669 2°55.947 37.868673 0.010194 0.059216  
2002-09-25 06:51:04 51°13.668 2°55.947 36.945137 0.010194 0.059217  
2002-09-25 06:52:05 51°13.668 2°55.947 37.766433 0.010194 0.059218  
2002-09-25 06:53:03 51°13.668 2°55.947 36.881152 0.010194 0.059218  
2002-09-25 06:54:05 51°13.668 2°55.947 39.991116 0.010194 0.059219  
2002-09-25 06:55:03 51°13.667 2°55.948 38.079732 0.010194 0.059219  
2002-09-25 06:56:03 51°13.667 2°55.948 34.859768 0.010194 0.059221  
2002-09-25 06:57:03 51°13.668 2°55.948 39.962927 0.010194 0.059221  
2002-09-25 06:58:03 51°13.667 2°55.948 37.378827 0.010194 0.059221  
2002-09-25 06:59:04 51°13.668 2°55.948 36.948267 0.01009 0.05866  
2002-09-25 07:00:04 51°13.667 2°55.947 36.047932 0.010194 0.059222  
2002-09-25 07:01:03 51°13.665 2°55.946 33.884366 0.010194 0.059223  
2002-09-25 07:02:06 51°13.671 2°55.91 34.900542 0.010194 0.059224  
2002-09-25 07:03:05 51°13.679 2°55.832 35.713817 0.010194 0.059225  
2002-09-25 07:04:04 51°13.686 2°55.799 35.24187 0.010194 0.059225  
2002-09-25 07:05:06 51°13.679 2°55.785 35.95176 0.010194 0.059226  
2002-09-25 07:06:05 51°13.695 2°55.812 35.520409 0.010194 0.059227  
2002-09-25 07:07:05 51°13.686 2°55.805 34.913025 0.010194 0.059228  
2002-09-25 07:08:02 51°13.694 2°55.81 34.076152 0.010194 0.059228  
2002-09-25 07:09:06 51°13.689 2°55.821 36.913958 0.010194 0.059229  
2002-09-25 07:10:05 51°13.68 2°55.819 34.929876 0.010194 0.059228  
2002-09-25 07:11:03 51°13.734 2°55.714 35.918326 0.01009 0.058666  
2002-09-25 07:12:03 51°13.83 2°55.615 33.475366 0.01009 0.058667  
2002-09-25 07:13:05 51°13.948 2°55.545 34.008927 0.010194 0.059229  
2002-09-25 07:14:03 51°14.058 2°55.469 34.146429 0.010194 0.059229  
2002-09-25 07:15:05 51°14.17 2°55.373 35.309892 0.010194 0.059229  
2002-09-25 07:16:05 51°14.265 2°55.244 33.464473 0.010194 0.059229  
2002-09-25 07:17:03 51°14.343 2°55.096 34.320195 0.010194 0.059229  
2002-09-25 07:18:04 51°14.387 2°54.89 34.580937 0.010194 0.05923  
2002-09-25 07:19:03 51°14.377 2°54.584 33.627411 0.010194 0.059229  
2002-09-25 07:20:09 51°14.315 2°54.19 33.789438 0.010194 0.059223  
2002-09-25 07:21:09 51°14.248 2°53.824 33.01988 0.010194 0.059218  
2002-09-25 07:22:09 51°14.151 2°53.468 35.397075 0.010194 0.059234  
2002-09-25 07:23:10 51°14.03 2°53.119 34.13884 0.01009 0.058661  
2002-09-25 07:24:10 51°13.907 2°52.777 34.927459 0.01009 0.058667  
2002-09-25 07:25:10 51°13.789 2°52.429 33.271341 0.01009 0.058661  
2002-09-25 07:26:10 51°13.664 2°52.077 34.192388 0.01009 0.058664  
2002-09-25 07:27:10 51°13.532 2°51.726 33.318563 0.010194 0.059233  
2002-09-25 07:28:10 51°13.4 2°51.376 34.567237 0.010194 0.059244  
2002-09-25 07:29:10 51°13.273 2°51.022 34.413115 0.01009 0.05865  
2002-09-25 07:30:09 51°13.145 2°50.676 32.795875 0.010194 0.059212  
2002-09-25 07:31:10 51°13.01 2°50.322 35.59154 0.010194 0.059239  
2002-09-25 07:32:10 51°12.877 2°49.973 35.579624 0.010194 0.05923  
2002-09-25 07:33:09 51°12.747 2°49.627 33.790379 0.010194 0.059234  
2002-09-25 07:34:10 51°12.61 2°49.27 37.904106 0.010194 0.059245  
2002-09-25 07:35:10 51°12.472 2°48.924 34.656277 0.010194 0.059237  
2002-09-25 07:36:10 51°12.337 2°48.579 34.377654 0.010194 0.059232  
2002-09-25 07:37:09 51°12.206 2°48.239 35.709163 0.010194 0.059232  
2002-09-25 07:38:10 51°12.079 2°47.881 35.559266 0.010194 0.059221  
2002-09-25 07:39:10 51°11.961 2°47.522 35.265045 0.010194 0.059234  
2002-09-25 07:40:09 51°11.858 2°47.16 34.600086 0.010194 0.059224  
2002-09-25 07:41:10 51°11.758 2°46.783 20.209383 0.010194 0.059209  
2002-09-25 07:42:10 51°11.662 2°46.408 20.055056 0.010194 0.059239  
2002-09-25 07:43:10 51°11.576 2°46.029 20.07814 0.01009 0.058689  
2002-09-25 07:44:09 51°11.492 2°45.657 20.054611 0.010194 0.059267  
2002-09-25 07:45:10 51°11.404 2°45.27 33.065152 0.010194 0.059254  
2002-09-25 07:46:10 51°11.315 2°44.891 34.387487 0.010194 0.059254  
2002-09-25 07:47:09 51°11.223 2°44.519 33.915123 0.010194 0.059257  
2002-09-25 07:48:10 51°11.134 2°44.135 34.352581 0.010194 0.059258  
2002-09-25 07:49:10 51°11.065 2°43.747 33.963463 0.010194 0.059254  
2002-09-25 07:50:10 51°10.997 2°43.357 35.029846 0.01009 0.058684  
2002-09-25 07:51:09 51°10.93 2°42.972 33.592265 0.010194 0.059247  
2002-09-25 07:52:10 51°10.86 2°42.576 34.019811 0.010194 0.059245  
2002-09-25 07:53:10 51°10.791 2°42.188 32.385423 0.010194 0.059254  
2002-09-25 07:54:10 51°10.724 2°41.798 29.134306 0.010194 0.059263  
2002-09-25 07:55:10 51°10.654 2°41.41 33.050641 0.010194 0.05924  
2002-09-25 07:56:10 51°10.585 2°41.018 32.364625 0.010194 0.059252  
2002-09-25 07:57:10 51°10.517 2°40.623 33.783292 0.010194 0.059244  
2002-09-25 07:58:09 51°10.447 2°40.239 35.277866 0.010194 0.059244  
2002-09-25 07:59:10 51°10.38 2°39.842 33.730335 0.010194 0.059255  
2002-09-25 08:00:10 51°10.312 2°39.45 33.601053 0.010194 0.059261  
2002-09-25 08:01:10 51°10.247 2°39.061 35.761292 0.010194 0.059259  
2002-09-25 08:02:09 51°10.19 2°38.674 34.86497 0.010194 0.059263  
2002-09-25 08:03:10 51°10.129 2°38.272 34.913952 0.010194 0.059266  
2002-09-25 08:04:10 51°10.073 2°37.876 33.785307 0.010194 0.059275  
2002-09-25 08:05:10 51°10.024 2°37.48 34.8201 0.010194 0.059272  
2002-09-25 08:06:10 51°9.978 2°37.081 34.392853 0.010194 0.05928  
2002-09-25 08:07:10 51°9.94 2°36.683 33.885205 0.010194 0.059263  
2002-09-25 08:08:10 51°9.938 2°36.284 36.917477 0.010194 0.059265  
2002-09-25 08:09:10 51°9.991 2°35.903 34.458318 0.010194 0.059256  
2002-09-25 08:10:10 51°10.121 2°35.595 34.360251 0.01009 0.058707  
2002-09-25 08:11:10 51°10.298 2°35.389 35.019398 0.010194 0.059266  
2002-09-25 08:12:10 51°10.5 2°35.412 35.279678 0.010194 0.059263  
2002-09-25 08:13:10 51°10.673 2°35.585 34.75925 0.010194 0.059257  
2002-09-25 08:14:10 51°10.836 2°35.782 35.777144 0.010194 0.059261  
2002-09-25 08:15:10 51°10.996 2°35.982 35.86486 0.010194 0.05926  
2002-09-25 08:16:10 51°11.16 2°36.18 35.200283 0.010194 0.059256  
2002-09-25 08:17:10 51°11.329 2°36.361 35.549053 0.010194 0.059257  
2002-09-25 08:18:10 51°11.498 2°36.536 35.804909 0.010194 0.059253  
2002-09-25 08:19:10 51°11.668 2°36.709 34.649733 0.010194 0.05925  
2002-09-25 08:20:10 51°11.832 2°36.882 34.599521 0.010194 0.059251  
2002-09-25 08:21:10 51°11.999 2°37.055 34.710004 0.010194 0.059249  
2002-09-25 08:22:10 51°12.169 2°37.23 34.79298 0.010194 0.059241  
2002-09-25 08:23:10 51°12.337 2°37.406 35.048985 0.010194 0.059237  
2002-09-25 08:24:10 51°12.505 2°37.581 35.811129 0.010194 0.059236  
2002-09-25 08:25:10 51°12.676 2°37.755 35.687298 0.010194 0.059229  
2002-09-25 08:26:10 51°12.845 2°37.928 33.631652 0.010194 0.059226  
2002-09-25 08:27:10 51°13.01 2°38.1 36.886481 0.010194 0.059222  
2002-09-25 08:28:10 51°13.179 2°38.272 37.071471 0.010194 0.059217  
2002-09-25 08:29:10 51°13.355 2°38.429 35.852036 0.010194 0.059215  
2002-09-25 08:30:10 51°13.543 2°38.557 35.172073 0.010194 0.059209  
2002-09-25 08:31:10 51°13.733 2°38.672 35.64811 0.010194 0.059206  
2002-09-25 08:32:10 51°13.922 2°38.784 34.500333 0.010194 0.0592  
2002-09-25 08:33:10 51°14.12 2°38.783 36.695008 0.010194 0.0592  
2002-09-25 08:34:10 51°14.276 2°38.549 36.039674 0.010194 0.059198  
2002-09-25 08:35:10 51°14.272 2°38.166 36.128078 0.010194 0.059193  
2002-09-25 08:36:10 51°14.145 2°37.814 35.604406 0.010194 0.059199  
2002-09-25 08:37:10 51°14.015 2°37.456 35.655359 0.010194 0.059192  
2002-09-25 08:38:09 51°13.902 2°37.096 36.611316 0.010194 0.059186  
2002-09-25 08:39:10 51°13.781 2°36.724 36.191825 0.010194 0.059197  
2002-09-25 08:40:10 51°13.663 2°36.361 36.762118 0.010194 0.0592  
2002-09-25 08:41:10 51°13.545 2°35.995 35.84137 0.010194 0.059188  
2002-09-25 08:42:10 51°13.422 2°35.633 34.850226 0.010194 0.059202  
2002-09-25 08:43:10 51°13.299 2°35.27 36.135251 0.010194 0.059195  
2002-09-25 08:44:10 51°13.172 2°34.912 30.673029 0.010194 0.059188  
2002-09-25 08:45:10 51°13.052 2°34.549 31.606216 0.010194 0.059193  
2002-09-25 08:46:10 51°12.933 2°34.182 36.470325 0.010194 0.059198  
2002-09-25 08:47:10 51°12.817 2°33.815 35.682806 0.010194 0.059186  
2002-09-25 08:48:10 51°12.703 2°33.448 34.717539 0.010194 0.059186  
2002-09-25 08:49:10 51°12.584 2°33.078 36.96298 0.010194 0.059181  
2002-09-25 08:50:10 51°12.469 2°32.712 30.917699 0.010194 0.059186  
2002-09-25 08:51:10 51°12.358 2°32.342 34.717539 0.010194 0.059197  
2002-09-25 08:52:10 51°12.246 2°31.968 35.899952 0.010194 0.059188  
2002-09-25 08:53:10 51°12.135 2°31.596 36.942846 0.010194 0.05917  
2002-09-25 08:54:10 51°12.018 2°31.227 36.099219 0.010194 0.059188  
2002-09-25 08:55:10 51°11.904 2°30.852 36.809294 0.010194 0.059189  
2002-09-25 08:56:10 51°11.787 2°30.478 36.44172 0.010194 0.059186  
2002-09-25 08:57:10 51°11.67 2°30.105 36.869396 0.010194 0.059186  
2002-09-25 08:58:10 51°11.554 2°29.727 36.939554 0.010194 0.059186  
2002-09-25 08:59:10 51°11.44 2°29.351 35.69969 0.010194 0.05918  
2002-09-25 09:00:10 51°11.329 2°28.969 36.146627 0.010194 0.059176  
2002-09-25 09:01:10 51°11.229 2°28.578 36.977433 0.010194 0.059185  
2002-09-25 09:02:10 51°11.177 2°28.169 36.312235 0.010194 0.05918  
2002-09-25 09:03:10 51°11.154 2°27.757 35.096995 0.010194 0.059184  
2002-09-25 09:04:10 51°11.149 2°27.346 37.208798 0.010194 0.059186  
2002-09-25 09:05:10 51°11.148 2°26.935 36.084835 0.010194 0.059171  
2002-09-25 09:06:10 51°11.142 2°26.526 36.633025 0.010194 0.059189  
2002-09-25 09:07:10 51°11.139 2°26.118 34.593006 0.010194 0.059179  
2002-09-25 09:08:10 51°11.135 2°25.718 36.15445 0.010194 0.059175  
2002-09-25 09:09:10 51°11.174 2°25.329 33.986383 0.010194 0.059165  
2002-09-25 09:10:10 51°11.322 2°25.07 36.287315 0.010194 0.059159  
2002-09-25 09:11:10 51°11.522 2°25.016 36.832047 0.010194 0.059158  
2002-09-25 09:12:10 51°11.718 2°25.08 35.654014 0.010194 0.059159  
2002-09-25 09:13:10 51°11.909 2°25.17 35.91401 0.010194 0.059162  
2002-09-25 09:14:10 51°12.079 2°25.321 35.055761 0.010194 0.059156  
2002-09-25 09:15:10 51°12.24 2°25.5 36.379312 0.010194 0.059153  
2002-09-25 09:16:10 51°12.392 2°25.693 35.821472 0.010194 0.059154  
2002-09-25 09:17:10 51°12.548 2°25.877 36.623305 0.010194 0.059146  
2002-09-25 09:18:10 51°12.702 2°26.063 35.897892 0.010194 0.05914  
2002-09-25 09:19:10 51°12.857 2°26.245 35.952675 0.010194 0.059139  
2002-09-25 09:20:10 51°13.011 2°26.422 35.475944 0.010194 0.059137  
2002-09-25 09:21:10 51°13.165 2°26.601 36.956398 0.010194 0.059135  
2002-09-25 09:22:10 51°13.321 2°26.78 35.062866 0.010194 0.059129  
2002-09-25 09:23:10 51°13.475 2°26.963 36.350284 0.010194 0.059124  
2002-09-25 09:24:10 51°13.621 2°27.162 35.049382 0.010194 0.059121  
2002-09-25 09:25:10 51°13.769 2°27.36 36.370146 0.010194 0.059116  
2002-09-25 09:26:10 51°13.916 2°27.56 36.518842 0.010194 0.059112  
2002-09-25 09:27:10 51°14.053 2°27.779 34.504393 0.010194 0.059108  
2002-09-25 09:28:10 51°14.187 2°27.991 35.976361 0.010194 0.059107  
2002-09-25 09:29:10 51°14.323 2°28.201 35.796823 0.010194 0.059104  
2002-09-25 09:30:10 51°14.462 2°28.413 36.055438 0.010194 0.059097  
2002-09-25 09:31:10 51°14.599 2°28.628 35.304984 0.010194 0.059095  
2002-09-25 09:32:10 51°14.735 2°28.844 36.894877 0.010194 0.05909  
2002-09-25 09:33:10 51°14.862 2°29.075 35.46378 0.010194 0.059087  
2002-09-25 09:34:10 51°14.987 2°29.311 36.129741 0.010194 0.059083  
2002-09-25 09:35:10 51°15.109 2°29.549 35.845034 0.010194 0.059071  
2002-09-25 09:36:10 51°15.232 2°29.783 35.362253 0.010194 0.059075  
2002-09-25 09:37:10 51°15.357 2°30.019 35.481697 0.010194 0.05907  
2002-09-25 09:38:10 51°15.488 2°30.252 34.79676 0.010194 0.059067  
2002-09-25 09:39:10 51°15.622 2°30.479 34.887958 0.010194 0.059066  
2002-09-25 09:40:10 51°15.751 2°30.706 35.096235 0.010194 0.05906  
2002-09-25 09:41:10 51°15.884 2°30.932 35.95176 0.010194 0.059058  
2002-09-25 09:42:10 51°16.022 2°31.154 34.745548 0.010194 0.059061  
2002-09-25 09:43:10 51°16.163 2°31.371 35.329721 0.010194 0.059056  
2002-09-25 09:44:10 51°16.306 2°31.591 35.24187 0.010194 0.059052  
2002-09-25 09:45:10 51°16.449 2°31.816 34.846415 0.010194 0.059047  
2002-09-25 09:46:10 51°16.594 2°32.041 35.724369 0.010194 0.059041  
2002-09-25 09:47:10 51°16.738 2°32.268 35.109975 0.010194 0.059038  
2002-09-25 09:48:10 51°16.88 2°32.493 35.46572 0.010194 0.059035  
2002-09-25 09:49:10 51°17.022 2°32.717 36.22459 0.010194 0.059042  
2002-09-25 09:50:10 51°17.165 2°32.945 36.956689 0.010194 0.059028  
2002-09-25 09:51:10 51°17.309 2°33.168 34.731478 0.010194 0.05903  
2002-09-25 09:52:10 51°17.452 2°33.392 34.880704 0.010194 0.05903  
2002-09-25 09:53:10 51°17.595 2°33.614 34.971077 0.010194 0.059029  
2002-09-25 09:54:10 51°17.735 2°33.837 35.414086 0.010194 0.05902  
2002-09-25 09:55:10 51°17.87 2°34.063 36.202574 0.010298 0.059576  
2002-09-25 09:56:10 51°18.008 2°34.289 34.699747 0.010194 0.059012  
2002-09-25 09:57:10 51°18.149 2°34.513 36.134175 0.010298 0.059566  
2002-09-25 09:58:10 51°18.283 2°34.737 36.080822 0.010298 0.059565  
2002-09-25 09:59:10 51°18.417 2°34.966 34.55726 0.010298 0.059558  
2002-09-25 10:00:10 51°18.55 2°35.201 37.109673 0.010298 0.059559  
2002-09-25 10:01:10 51°18.682 2°35.434 35.336505 0.010194 0.058999  
2002-09-25 10:02:10 51°18.813 2°35.67 35.612119 0.010298 0.059553  
2002-09-25 10:03:10 51°18.945 2°35.905 35.88141 0.010298 0.059549  
2002-09-25 10:04:10 51°19.074 2°36.139 35.335781 0.010298 0.059548  
2002-09-25 10:05:10 51°19.205 2°36.377 37.317566 0.010298 0.059536  
2002-09-25 10:06:10 51°19.333 2°36.613 35.857434 0.010298 0.05954  
2002-09-25 10:07:10 51°19.463 2°36.848 33.147592 0.010298 0.059539  
2002-09-25 10:08:10 51°19.587 2°37.083 34.984707 0.010298 0.059537  
2002-09-25 10:09:10 51°19.714 2°37.32 34.910608 0.010298 0.059534  
2002-09-25 10:10:10 51°19.845 2°37.556 36.240089 0.010298 0.059529  
2002-09-25 10:11:10 51°19.976 2°37.785 35.612906 0.010298 0.059525  
2002-09-25 10:12:10 51°20.118 2°37.997 37.25629 0.010298 0.059518  
2002-09-25 10:13:10 51°20.26 2°38.209 35.652046 0.010298 0.059517  
2002-09-25 10:14:10 51°20.404 2°38.412 36.380579 0.010298 0.05952  
2002-09-25 10:15:10 51°20.565 2°38.597 34.476631 0.010298 0.05951  
2002-09-25 10:16:10 51°20.742 2°38.732 37.664159 0.010298 0.059505  
2002-09-25 10:17:10 51°20.919 2°38.858 37.068635 0.010298 0.059504  
2002-09-25 10:18:10 51°21.093 2°39.002 36.325993 0.010298 0.059497  
2002-09-25 10:19:10 51°21.265 2°39.145 37.460981 0.010298 0.059497  
2002-09-25 10:20:10 51°21.451 2°39.222 36.614654 0.010298 0.059494  
2002-09-25 10:21:10 51°21.653 2°39.251 36.655213 0.010298 0.059488  
2002-09-25 10:22:10 51°21.85 2°39.31 36.496194 0.010298 0.059484  
2002-09-25 10:23:10 51°22.042 2°39.374 37.195224 0.010298 0.059484  
2002-09-25 10:24:10 51°22.234 2°39.44 36.357598 0.010298 0.059477  
2002-09-25 10:25:10 51°22.43 2°39.5 37.1127 0.010298 0.05947  
2002-09-25 10:26:10 51°22.627 2°39.566 35.892137 0.010298 0.059467  
2002-09-25 10:27:10 51°22.82 2°39.636 36.439804 0.010298 0.059467  
2002-09-25 10:28:10 51°23.016 2°39.711 36.368943 0.010298 0.059462  
2002-09-25 10:29:10 51°23.206 2°39.807 36.315878 0.010298 0.059458  
2002-09-25 10:30:10 51°23.397 2°39.902 36.104568 0.010298 0.059453  
2002-09-25 10:31:10 51°23.591 2°39.954 36.255324 0.010298 0.059449  
2002-09-25 10:32:10 51°23.786 2°39.999 35.625277 0.010298 0.059444  
2002-09-25 10:33:10 51°23.985 2°40.05 36.493889 0.010298 0.059442  
2002-09-25 10:34:10 51°24.179 2°40.098 37.631499 0.010298 0.059437  
2002-09-25 10:35:10 51°24.378 2°40.131 37.761451 0.010298 0.059435  
2002-09-25 10:36:10 51°24.579 2°40.159 38.086827 0.010298 0.059431  
2002-09-25 10:37:10 51°24.775 2°40.185 34.121182 0.010298 0.059423  
2002-09-25 10:38:10 51°24.974 2°40.215 36.700996 0.010298 0.059422  
2002-09-25 10:39:10 51°25.171 2°40.246 37.379116 0.010298 0.059419  
2002-09-25 10:40:10 51°25.367 2°40.276 37.911185 0.010298 0.059417  
2002-09-25 10:41:10 51°25.56 2°40.297 36.926354 0.010298 0.059412  
2002-09-25 10:42:10 51°25.756 2°40.314 38.001872 0.010298 0.059407  
2002-09-25 10:43:10 51°25.955 2°40.332 37.573505 0.010298 0.059405  
2002-09-25 10:44:10 51°26.122 2°40.467 37.822629 0.010298 0.059401  
2002-09-25 10:45:10 51°26.229 2°40.712 36.980271 0.010298 0.05941  
2002-09-25 10:46:10 51°26.34 2°40.958 34.303447 0.010298 0.05939  
2002-09-25 10:47:10 51°26.423 2°41.237 35.262836 0.010298 0.059387  
2002-09-25 10:48:10 51°26.503 2°41.521 37.660129 0.010298 0.059389  
2002-09-25 10:49:10 51°26.584 2°41.808 37.170772 0.010298 0.059386  
2002-09-25 10:50:10 51°26.66 2°42.095 37.495537 0.010298 0.05938  
2002-09-25 10:51:10 51°26.744 2°42.383 39.023327 0.010298 0.059377  
2002-09-25 10:52:10 51°26.827 2°42.672 36.634677 0.010298 0.059372  
2002-09-25 10:53:10 51°26.881 2°42.98 37.730333 0.010298 0.059369  
2002-09-25 10:54:10 51°26.886 2°43.32 32.51883 0.010298 0.059368  
2002-09-25 10:55:10 51°26.876 2°43.66 35.568329 0.010298 0.059364  
2002-09-25 10:56:10 51°26.739 2°43.941 34.89945 0.010298 0.059353  
2002-09-25 10:57:10 51°26.559 2°44.176 34.874974 0.010298 0.059351  
2002-09-25 10:58:10 51°26.385 2°44.429 35.485313 0.010298 0.059357  
2002-09-25 10:59:10 51°26.199 2°44.668 35.394509 0.010298 0.059369  
2002-09-25 11:00:10 51°26.017 2°44.908 36.382724 0.010298 0.059369  
2002-09-25 11:01:10 51°25.83 2°45.144 34.312055 0.010298 0.059358  
2002-09-25 11:02:10 51°25.624 2°45.344 37.26574 0.010298 0.059353  
2002-09-25 11:03:10 51°25.423 2°45.548 36.965916 0.010298 0.059348  
2002-09-25 11:04:10 51°25.217 2°45.75 36.657642 0.010298 0.059344  
2002-09-25 11:05:10 51°25.016 2°45.958 37.108997 0.010298 0.059335  
2002-09-25 11:06:10 51°24.814 2°46.162 37.395226 0.010298 0.059341  
2002-09-25 11:07:10 51°24.663 2°46.426 36.3217 0.010298 0.059343  
2002-09-25 11:08:10 51°24.724 2°46.721 35.934897 0.010298 0.059344  
2002-09-25 11:09:10 51°24.822 2°47.012 37.114954 0.010298 0.059336  
2002-09-25 11:10:10 51°24.925 2°47.303 35.873168 0.010298 0.059331  
2002-09-25 11:11:10 51°25.023 2°47.601 38.557463 0.010298 0.059324  
2002-09-25 11:12:10 51°25.118 2°47.89 37.22877 0.010298 0.059325  
2002-09-25 11:13:10 51°25.214 2°48.186 37.01971 0.010298 0.059316  
2002-09-25 11:14:10 51°25.308 2°48.484 37.352954 0.010298 0.059315  
2002-09-25 11:15:10 51°25.399 2°48.779 35.948525 0.010298 0.059323  
2002-09-25 11:16:10 51°25.499 2°49.065 36.410018 0.010298 0.059312  
2002-09-25 11:17:10 51°25.605 2°49.341 36.835602 0.010298 0.05931  
2002-09-25 11:18:10 51°25.705 2°49.621 37.550161 0.010298 0.059306  
2002-09-25 11:19:10 51°25.8 2°49.902 37.219958 0.010298 0.059297  
2002-09-25 11:20:10 51°25.9 2°50.187 36.462988 0.010298 0.059286  
2002-09-25 11:21:10 51°26.066 2°50.222 36.755261 0.010298 0.059285  
2002-09-25 11:22:10 51°26.245 2°50.051 38.495258 0.010298 0.059276  
2002-09-25 11:23:10 51°26.427 2°49.881 36.93226 0.010298 0.059274  
2002-09-25 11:24:10 51°26.61 2°49.711 38.460116 0.010298 0.059268  
2002-09-25 11:25:10 51°26.793 2°49.541 38.382307 0.010298 0.059265  
2002-09-25 11:26:10 51°26.974 2°49.366 37.930981 0.010298 0.059257  
2002-09-25 11:27:10 51°27.156 2°49.192 37.180683 0.010298 0.059255  
2002-09-25 11:28:10 51°27.339 2°49.021 37.10977 0.010298 0.059251  
2002-09-25 11:29:10 51°27.52 2°48.85 38.447037 0.010298 0.05925  
2002-09-25 11:30:10 51°27.709 2°48.684 39.203284 0.010298 0.059239  
2002-09-25 11:31:10 51°27.896 2°48.516 39.211535 0.010298 0.059239  
2002-09-25 11:32:10 51°28.084 2°48.355 38.922762 0.010298 0.059235  
2002-09-25 11:33:10 51°28.271 2°48.191 38.089435 0.010298 0.059229  
2002-09-25 11:34:10 51°28.455 2°48.222 39.082991 0.010298 0.059218  
2002-09-25 11:35:10 51°28.546 2°48.51 39.578246 0.010298 0.059229  
2002-09-25 11:36:10 51°28.634 2°48.805 39.690759 0.010298 0.059222  
2002-09-25 11:37:10 51°28.725 2°49.107 37.25015 0.010298 0.059217  
2002-09-25 11:38:10 51°28.813 2°49.404 39.367312 0.010298 0.059215  
2002-09-25 11:39:10 51°28.898 2°49.706 36.601529 0.010298 0.059207  
2002-09-25 11:40:10 51°28.979 2°50.004 35.865939 0.010298 0.059205  
2002-09-25 11:41:10 51°29.065 2°50.309 35.636071 0.010298 0.059199  
2002-09-25 11:42:10 51°29.152 2°50.616 34.272209 0.010298 0.059203  
2002-09-25 11:43:10 51°29.239 2°50.92 33.42986 0.010298 0.059199  
2002-09-25 11:44:10 51°29.325 2°51.233 36.93126 0.010298 0.059191  
2002-09-25 11:45:10 51°29.402 2°51.55 36.218989 0.010298 0.059185  
2002-09-25 11:46:10 51°29.48 2°51.865 36.98798 0.010298 0.059183  
2002-09-25 11:47:10 51°29.454 2°52.199 36.741156 0.010298 0.059179  
2002-09-25 11:48:10 51°29.268 2°52.427 36.967432 0.010298 0.05918  
2002-09-25 11:49:10 51°29.051 2°52.583 38.793664 0.010298 0.059175  
2002-09-25 11:50:10 51°28.823 2°52.725 35.829556 0.010402 0.059721  
2002-09-25 11:51:10 51°28.597 2°52.877 38.740098 0.010298 0.059155  
2002-09-25 11:52:10 51°28.375 2°53.023 38.173821 0.010298 0.059162  
2002-09-25 11:53:10 51°28.148 2°53.171 36.501937 0.010402 0.059716  
2002-09-25 11:54:10 51°27.923 2°53.318 36.397769 0.010298 0.059155  
2002-09-25 11:55:10 51°27.697 2°53.467 36.83725 0.010402 0.059705  
2002-09-25 11:56:10 51°27.474 2°53.627 36.921835 0.010402 0.059706  
2002-09-25 11:57:10 51°27.247 2°53.771 36.884156 0.010402 0.059701  
2002-09-25 11:58:10 51°27.02 2°53.916 37.848032 0.010402 0.059695  
2002-09-25 11:59:10 51°26.794 2°54.05 37.323572 0.010402 0.059679  
2002-09-25 12:00:10 51°26.567 2°54.185 38.250784 0.010402 0.059687  
2002-09-25 12:01:10 51°26.338 2°54.32 38.405886 0.010402 0.05969  
2002-09-25 12:02:10 51°26.113 2°54.455 37.39744 0.010402 0.059695  
2002-09-25 12:03:10 51°25.88 2°54.578 36.716467 0.010402 0.059678  
2002-09-25 12:04:10 51°25.639 2°54.64 36.649383 0.010402 0.059683  
2002-09-25 12:05:10 51°25.395 2°54.699 36.833663 0.010402 0.059675  
2002-09-25 12:06:10 51°25.149 2°54.766 36.376907 0.010402 0.059671  
2002-09-25 12:07:10 51°24.903 2°54.843 36.640897 0.010402 0.059666  
2002-09-25 12:08:10 51°24.657 2°54.916 37.593033 0.010402 0.059673  
2002-09-25 12:09:10 51°24.421 2°54.997 35.923588 0.010402 0.059669  
2002-09-25 12:10:10 51°24.179 2°55.066 36.993689 0.010402 0.05965  
2002-09-25 12:11:10 51°23.938 2°55.145 37.117305 0.010402 0.059644  
2002-09-25 12:12:10 51°23.697 2°55.216 36.871657 0.010402 0.059647  
2002-09-25 12:13:10 51°23.457 2°55.29 36.264666 0.010402 0.059653  
2002-09-25 12:14:10 51°23.22 2°55.361 36.504793 0.010402 0.059647  
2002-09-25 12:15:10 51°22.983 2°55.44 36.406445 0.010402 0.059636  
2002-09-25 12:16:10 51°22.743 2°55.523 37.440747 0.010402 0.05963  
2002-09-25 12:17:10 51°22.508 2°55.598 36.71213 0.010402 0.05963  
2002-09-25 12:18:10 51°22.266 2°55.666 35.155934 0.010402 0.059625  
2002-09-25 12:19:10 51°22.028 2°55.752 34.889614 0.010402 0.059619  
2002-09-25 12:20:10 51°21.789 2°55.831 35.366467 0.010402 0.059621  
2002-09-25 12:21:10 51°21.552 2°55.911 36.329571 0.010402 0.059611  
2002-09-25 12:22:10 51°21.31 2°55.977 35.61901 0.010402 0.059602  
2002-09-25 12:23:10 51°21.074 2°55.891 36.65191 0.010402 0.059595  
2002-09-25 12:24:10 51°20.853 2°55.74 37.061676 0.010402 0.0596  
2002-09-25 12:25:10 51°20.639 2°55.56 35.533878 0.010402 0.059576  
2002-09-25 12:26:10 51°20.427 2°55.377 36.514819 0.010402 0.059588  
2002-09-25 12:27:10 51°20.227 2°55.17 36.192737 0.010402 0.059582  
2002-09-25 12:28:10 51°20.049 2°54.927 37.013842 0.010402 0.059574  
2002-09-25 12:29:10 51°19.866 2°54.684 37.375265 0.010402 0.059573  
2002-09-25 12:30:10 51°19.678 2°54.45 36.377817 0.010402 0.059599  
2002-09-25 12:31:10 51°19.489 2°54.224 37.594186 0.010402 0.05959  
2002-09-25 12:32:10 51°19.302 2°53.995 37.415119 0.010402 0.059583  
2002-09-25 12:33:10 51°19.112 2°53.767 37.245875 0.010402 0.059568  
2002-09-25 12:34:10 51°18.923 2°53.545 38.524816 0.010402 0.059565  
2002-09-25 12:35:10 51°18.739 2°53.322 37.541802 0.010402 0.059573  
2002-09-25 12:36:10 51°18.553 2°53.1 37.43552 0.010402 0.059559  
2002-09-25 12:37:10 51°18.366 2°52.881 37.414958 0.010402 0.059576  
2002-09-25 12:38:10 51°18.18 2°52.666 36.8325 0.010402 0.059579  
2002-09-25 12:39:10 51°17.99 2°52.458 37.36602 0.010402 0.059581  
2002-09-25 12:40:10 51°17.769 2°52.34 39.51832 0.010402 0.059574  
2002-09-25 12:41:10 51°17.531 2°52.301 38.990805 0.010402 0.059573  
2002-09-25 12:42:10 51°17.292 2°52.321 39.067906 0.010402 0.059562  
2002-09-25 12:43:10 51°17.063 2°52.447 38.166543 0.010402 0.059556  
2002-09-25 12:44:10 51°16.846 2°52.609 38.368771 0.010402 0.059545  
2002-09-25 12:45:10 51°16.63 2°52.783 37.942711 0.010402 0.059545  
2002-09-25 12:46:10 51°16.412 2°52.944 39.009112 0.010402 0.059526  
2002-09-25 12:47:10 51°16.199 2°53.101 35.675921 0.010402 0.059534  
2002-09-25 12:48:10 51°15.987 2°53.277 38.568532 0.010402 0.059525  
2002-09-25 12:49:10 51°15.774 2°53.454 37.517583 0.010402 0.059523  
2002-09-25 12:50:10 51°15.572 2°53.653 37.676311 0.010402 0.059524  
2002-09-25 12:51:10 51°15.369 2°53.856 36.881152 0.010402 0.059513  
2002-09-25 12:52:10 51°15.178 2°54.082 37.346437 0.010402 0.059509  
2002-09-25 12:53:10 51°14.986 2°54.305 37.583686 0.010402 0.059502  
2002-09-25 12:54:10 51°14.789 2°54.513 38.21236 0.010402 0.059498  
2002-09-25 12:55:10 51°14.608 2°54.712 37.340528 0.010402 0.059494  
2002-09-25 12:56:10 51°14.446 2°54.937 36.883639 0.010402 0.059491